Time;durP1;ratioP1;P1;durP2;ratioP2;P2;SDS_P1;SDS_P2;PMS_P1;PMS_P2;Temp;Humidity;BMP_temperature;BMP_pressure;BME280_temperature;BME280_humidity;BME280_pressure;Samples;Min_cycle;Max_cycle;Signal;HPM_P1;HPM_P2
2022/01/13 00:00:17;;;;;;;117.18;21.48;;;2.60;99.90;;;;;;5010733;28;20036;-57
2022/01/13 00:02:43;;;;;;;177.38;27.77;;;2.50;99.90;;;;;;5008734;28;20040;-57
2022/01/13 00:05:09;;;;;;;97.25;23.15;;;2.40;99.90;;;;;;5012873;28;20021;-57
2022/01/13 00:07:36;;;;;;;229.15;27.30;;;2.40;99.90;;;;;;5014060;28;20036;-57
2022/01/13 00:10:04;;;;;;;275.90;30.75;;;2.40;99.90;;;;;;5012779;28;20036;-57
2022/01/13 00:12:35;;;;;;;174.98;25.42;;;2.30;99.90;;;;;;5014118;28;20033;-57
2022/01/13 00:17:56;;;;;;;215.73;26.67;;;2.40;99.90;;;;;;5014240;28;20108;-57
2022/01/13 00:25:34;;;;;;;276.48;27.08;;;2.30;99.90;;;;;;5014663;28;20022;-57
2022/01/13 00:28:02;;;;;;;201.57;27.25;;;2.30;99.90;;;;;;5014193;28;20046;-57
2022/01/13 00:30:28;;;;;;;371.27;31.35;;;2.30;99.90;;;;;;5014409;28;20349;-57
2022/01/13 00:32:53;;;;;;;337.10;30.95;;;2.30;99.90;;;;;;5014156;28;20062;-57
2022/01/13 00:35:19;;;;;;;341.85;33.53;;;2.30;99.90;;;;;;5015164;28;20495;-57
2022/01/13 00:37:45;;;;;;;390.52;33.25;;;2.30;99.90;;;;;;5013782;28;20424;-57
2022/01/13 00:40:11;;;;;;;178.63;26.25;;;2.30;99.90;;;;;;5013882;28;20064;-57
2022/01/13 00:42:37;;;;;;;176.95;29.13;;;2.30;99.90;;;;;;5013696;28;20021;-57
2022/01/13 00:45:05;;;;;;;354.02;33.08;;;2.30;99.90;;;;;;5012414;28;20026;-57
2022/01/13 00:47:31;;;;;;;308.98;30.90;;;2.30;99.90;;;;;;5013492;28;20037;-57
2022/01/13 00:49:57;;;;;;;360.65;31.20;;;2.30;99.90;;;;;;5013964;28;20410;-57
2022/01/13 00:52:25;;;;;;;326.40;32.30;;;2.40;99.90;;;;;;5014453;28;20373;-57
2022/01/13 00:54:51;;;;;;;427.20;33.58;;;2.40;99.90;;;;;;5014488;28;20522;-57
2022/01/13 00:57:17;;;;;;;256.65;29.80;;;2.50;99.90;;;;;;5014669;28;20459;-57
2022/01/13 00:59:42;;;;;;;229.27;30.08;;;2.60;99.90;;;;;;5012498;28;20033;-57
2022/01/13 01:02:08;;;;;;;307.58;31.50;;;2.70;99.90;;;;;;5013727;28;20034;-57
2022/01/13 01:04:33;;;;;;;372.52;33.47;;;2.80;99.90;;;;;;5013806;28;20026;-57
2022/01/13 01:06:59;;;;;;;237.88;27.63;;;2.70;99.90;;;;;;5013422;28;20065;-57
2022/01/13 01:09:38;;;;;;;294.55;29.92;;;2.70;99.90;;;;;;5013741;28;20029;-57
2022/01/13 01:12:05;;;;;;;353.25;31.83;;;2.70;99.90;;;;;;5013587;28;20073;-57
2022/01/13 01:14:33;;;;;;;471.55;34.58;;;2.80;99.90;;;;;;5012264;28;20407;-57
2022/01/13 01:16:59;;;;;;;188.13;19.92;;;2.80;99.90;;;;;;5011352;28;20026;-57
2022/01/13 01:19:29;;;;;;;348.55;28.98;;;2.70;99.90;;;;;;5013354;28;20040;-57
2022/01/13 01:22:28;;;;;;;453.38;34.88;;;2.60;99.90;;;;;;5013372;28;20029;-57
2022/01/13 01:25:21;;;;;;;367.10;30.58;;;2.50;99.90;;;;;;5013160;28;20089;-57
2022/01/13 01:27:50;;;;;;;504.33;34.78;;;2.50;99.90;;;;;;5012650;28;20042;-57
2022/01/13 01:30:28;;;;;;;496.05;36.50;;;2.40;99.90;;;;;;5012714;28;20038;-57
2022/01/13 01:32:54;;;;;;;547.90;36.55;;;2.40;99.90;;;;;;5017316;28;20025;-58
2022/01/13 01:35:24;;;;;;;398.25;32.67;;;2.40;99.90;;;;;;5012973;28;20395;-58
2022/01/13 01:37:50;;;;;;;306.50;28.98;;;2.40;99.90;;;;;;5013020;28;20493;-58
2022/01/13 01:40:16;;;;;;;217.07;27.70;;;2.50;99.90;;;;;;5012778;28;20026;-58
2022/01/13 01:42:42;;;;;;;331.02;29.17;;;2.50;99.90;;;;;;5012574;28;20178;-59
2022/01/13 01:45:09;;;;;;;273.70;31.15;;;2.40;99.90;;;;;;5011034;28;20030;-58
2022/01/13 01:47:35;;;;;;;480.58;40.63;;;2.30;99.90;;;;;;5010980;28;20033;-58
2022/01/13 01:50:10;;;;;;;381.65;36.15;;;2.30;99.90;;;;;;5011798;28;20018;-58
2022/01/13 01:52:38;;;;;;;174.25;27.67;;;2.30;99.90;;;;;;5012065;28;20088;-58
2022/01/13 01:55:05;;;;;;;261.77;31.80;;;2.20;99.90;;;;;;5012179;28;20030;-58
2022/01/13 01:57:30;;;;;;;346.20;36.40;;;2.20;99.90;;;;;;5012720;28;20034;-58
2022/01/13 01:59:56;;;;;;;346.90;34.53;;;2.20;99.90;;;;;;5012416;28;20025;-58
2022/01/13 02:02:24;;;;;;;197.27;26.35;;;2.20;99.90;;;;;;5011977;28;20028;-58
2022/01/13 02:04:49;;;;;;;324.10;30.80;;;2.30;99.90;;;;;;5012570;28;20022;-58
2022/01/13 02:07:15;;;;;;;349.13;30.60;;;2.30;99.90;;;;;;5012651;28;20100;-58
2022/01/13 02:09:43;;;;;;;132.75;22.50;;;2.20;99.90;;;;;;5012145;28;20022;-57
2022/01/13 02:12:15;;;;;;;163.57;22.55;;;2.20;99.90;;;;;;5012926;28;20045;-57
2022/01/13 02:14:58;;;;;;;476.27;34.53;;;2.10;99.90;;;;;;5010858;28;20033;-57
2022/01/13 02:17:28;;;;;;;380.95;32.28;;;2.10;99.90;;;;;;5011470;28;20284;-57
2022/01/13 02:19:56;;;;;;;385.02;31.17;;;2.10;99.90;;;;;;5010134;28;20037;-57
2022/01/13 02:22:23;;;;;;;301.50;30.58;;;2.10;99.90;;;;;;5010686;28;20491;-57
2022/01/13 02:24:49;;;;;;;202.93;27.60;;;2.10;99.90;;;;;;5010880;28;20095;-57
2022/01/13 02:27:15;;;;;;;89.47;22.48;;;2.30;99.90;;;;;;5011434;28;20049;-57
2022/01/13 02:29:41;;;;;;;117.68;22.10;;;2.10;99.90;;;;;;5011034;28;20025;-57
2022/01/13 02:32:07;;;;;;;365.02;32.28;;;2.00;99.90;;;;;;5011692;28;20025;-57
2022/01/13 02:34:33;;;;;;;192.93;26.23;;;2.00;99.90;;;;;;5011737;28;20026;-58
2022/01/13 02:36:59;;;;;;;369.10;30.55;;;2.10;99.90;;;;;;5010193;28;20022;-58
2022/01/13 02:39:29;;;;;;;441.35;34.65;;;2.10;99.90;;;;;;5010108;28;20505;-58
2022/01/13 02:41:56;;;;;;;265.10;28.42;;;2.10;99.90;;;;;;5011369;28;20029;-58
2022/01/13 02:44:24;;;;;;;156.10;27.50;;;2.10;99.90;;;;;;5010940;28;20022;-58
2022/01/13 02:49:22;;;;;;;130.65;21.90;;;2.10;99.90;;;;;;5011524;28;20018;-58
2022/01/13 02:51:50;;;;;;;176.15;23.30;;;2.20;99.90;;;;;;5010438;28;20033;-58
2022/01/13 02:54:16;;;;;;;346.95;31.48;;;2.10;99.90;;;;;;5010165;28;20491;-58
2022/01/13 02:56:43;;;;;;;168.68;23.60;;;2.00;99.90;;;;;;5011259;28;20014;-58
2022/01/13 02:59:10;;;;;;;422.67;34.20;;;2.00;99.90;;;;;;5011207;28;20554;-58
2022/01/13 03:01:36;;;;;;;283.67;28.05;;;2.00;99.90;;;;;;5011054;28;20029;-58
2022/01/13 03:04:06;;;;;;;297.05;26.20;;;2.00;99.90;;;;;;5011284;28;20496;-58
2022/01/13 03:06:35;;;;;;;461.33;33.22;;;2.00;99.90;;;;;;5011058;28;20117;-58
2022/01/13 03:09:04;;;;;;;209.38;23.25;;;2.00;99.90;;;;;;5011446;28;20037;-58
2022/01/13 03:11:34;;;;;;;410.30;32.50;;;1.90;99.90;;;;;;5010967;28;20519;-57
2022/01/13 03:14:00;;;;;;;252.52;31.40;;;1.90;99.90;;;;;;5011383;28;20029;-57
2022/01/13 03:16:25;;;;;;;355.50;30.60;;;1.90;99.90;;;;;;5009375;28;20022;-57
2022/01/13 03:18:51;;;;;;;275.38;25.95;;;1.90;99.90;;;;;;5010686;28;20049;-57
2022/01/13 03:21:18;;;;;;;232.60;28.33;;;1.90;99.90;;;;;;5010928;28;20025;-57
2022/01/13 03:23:44;;;;;;;204.32;26.52;;;1.90;99.90;;;;;;5009640;28;20030;-57
2022/01/13 03:26:10;;;;;;;133.25;22.40;;;1.90;99.90;;;;;;5010606;28;20030;-57
2022/01/13 03:28:50;;;;;;;106.57;19.23;;;1.90;99.90;;;;;;5010672;28;20026;-57
2022/01/13 03:31:21;;;;;;;246.80;25.33;;;1.80;99.90;;;;;;5010591;28;20034;-57
2022/01/13 03:33:47;;;;;;;219.90;25.95;;;1.70;99.90;;;;;;5011364;28;20053;-57
2022/01/13 03:36:13;;;;;;;158.48;23.52;;;1.60;99.90;;;;;;5009422;28;20394;-57
2022/01/13 03:38:39;;;;;;;137.98;24.38;;;1.60;99.90;;;;;;5009596;28;20057;-57
2022/01/13 03:41:05;;;;;;;191.02;26.58;;;1.60;99.90;;;;;;5014284;28;20446;-57
2022/01/13 03:43:32;;;;;;;94.60;19.63;;;1.70;99.90;;;;;;5025568;28;20025;-57
2022/01/13 03:45:58;;;;;;;210.75;24.38;;;1.80;99.90;;;;;;5030293;28;20018;-57
2022/01/13 03:48:24;;;;;;;78.05;19.58;;;1.70;99.90;;;;;;5014370;28;20034;-57
2022/01/13 03:50:49;;;;;;;350.75;30.92;;;1.70;99.90;;;;;;5011024;28;20037;-57
2022/01/13 03:53:27;;;;;;;495.42;32.80;;;1.70;99.90;;;;;;5010947;28;20018;-57
2022/01/13 03:56:19;;;;;;;166.27;23.60;;;1.70;99.90;;;;;;5010758;28;20068;-57
2022/01/13 03:59:15;;;;;;;314.20;26.65;;;1.70;99.90;;;;;;5010606;28;20056;-57
2022/01/13 04:02:01;;;;;;;201.73;22.83;;;1.70;99.90;;;;;;5010757;28;20025;-57
2022/01/13 04:04:33;;;;;;;195.82;19.90;;;1.60;99.90;;;;;;5010544;28;20387;-57
2022/01/13 04:07:06;;;;;;;337.98;27.38;;;1.60;99.90;;;;;;5009607;28;20496;-57
2022/01/13 04:09:35;;;;;;;231.52;24.90;;;1.70;99.90;;;;;;5010746;28;20040;-57
2022/01/13 04:12:05;;;;;;;116.93;18.17;;;1.60;99.90;;;;;;5010492;28;20069;-57
2022/01/13 04:14:39;;;;;;;114.32;22.70;;;1.60;99.90;;;;;;5010377;28;20022;-56
2022/01/13 04:17:05;;;;;;;146.95;23.23;;;1.60;99.90;;;;;;5009109;28;20028;-56
2022/01/13 04:19:31;;;;;;;306.40;29.20;;;1.60;99.90;;;;;;5010402;28;20036;-56
2022/01/13 04:21:57;;;;;;;268.35;27.50;;;1.70;99.90;;;;;;5010472;28;20030;-56
2022/01/13 04:24:23;;;;;;;230.02;25.83;;;1.70;99.90;;;;;;5011027;28;20558;-56
2022/01/13 04:26:48;;;;;;;337.85;31.30;;;1.80;99.90;;;;;;5010074;28;20045;-56
2022/01/13 04:31:43;;;;;;;172.70;23.67;;;1.90;99.90;;;;;;5010460;28;20018;-56
2022/01/13 04:34:09;;;;;;;411.55;28.20;;;1.90;99.90;;;;;;5010594;28;20145;-57
2022/01/13 04:36:35;;;;;;;109.20;17.85;;;1.80;99.90;;;;;;5010252;28;20026;-57
2022/01/13 04:39:02;;;;;;;110.13;17.30;;;1.70;99.90;;;;;;5010660;28;20022;-57
2022/01/13 04:41:32;;;;;;;231.02;24.08;;;1.60;99.90;;;;;;5010409;28;20401;-58
2022/01/13 04:43:58;;;;;;;123.70;17.92;;;1.60;99.90;;;;;;5010178;28;20032;-57
2022/01/13 04:46:25;;;;;;;303.38;26.15;;;1.70;99.90;;;;;;5010515;28;20025;-57
2022/01/13 04:48:50;;;;;;;226.85;25.60;;;1.60;99.90;;;;;;5009821;28;20108;-57
2022/01/13 04:51:16;;;;;;;327.45;27.77;;;1.60;99.90;;;;;;5010292;28;20116;-58
2022/01/13 04:53:42;;;;;;;420.10;29.10;;;1.50;99.90;;;;;;5012603;28;20434;-57
2022/01/13 04:56:26;;;;;;;159.52;21.00;;;1.50;99.90;;;;;;5013671;28;20022;-57
2022/01/13 04:58:52;;;;;;;201.50;21.45;;;1.50;99.90;;;;;;5013349;28;20064;-57
2022/01/13 05:01:18;;;;;;;336.80;28.05;;;1.50;99.90;;;;;;5013518;28;20038;-57
2022/01/13 05:03:44;;;;;;;170.38;22.23;;;1.50;99.90;;;;;;5013485;28;20038;-57
2022/01/13 05:06:09;;;;;;;207.30;23.25;;;1.40;99.90;;;;;;5012125;28;20497;-57
2022/01/13 05:08:35;;;;;;;235.23;22.85;;;1.40;99.90;;;;;;5013544;28;20076;-57
2022/01/13 05:11:01;;;;;;;367.30;27.00;;;1.50;99.90;;;;;;5013174;28;20479;-57
2022/01/13 05:13:26;;;;;;;109.45;20.38;;;1.50;99.90;;;;;;5013596;28;20034;-57
2022/01/13 05:15:54;;;;;;;303.33;25.55;;;1.50;99.90;;;;;;5013320;28;20025;-58
2022/01/13 05:21:07;;;;;;;153.98;23.77;;;1.50;99.90;;;;;;5013674;28;20041;-57
2022/01/13 05:23:34;;;;;;;215.13;25.05;;;1.40;99.90;;;;;;5012772;28;20025;-57
2022/01/13 05:26:00;;;;;;;430.88;30.17;;;1.40;99.90;;;;;;5012843;28;20040;-57
2022/01/13 05:28:25;;;;;;;134.38;18.88;;;1.40;99.90;;;;;;5012506;28;20050;-57
2022/01/13 05:30:51;;;;;;;145.77;23.55;;;1.50;99.90;;;;;;5012829;28;20057;-57
2022/01/13 05:33:17;;;;;;;142.00;24.35;;;1.50;99.90;;;;;;5011847;28;20379;-58
2022/01/13 05:35:42;;;;;;;312.30;28.60;;;1.50;99.90;;;;;;5012479;28;20084;-57
2022/01/13 05:38:09;;;;;;;181.80;24.50;;;1.40;99.90;;;;;;5012162;28;20033;-57
2022/01/13 05:40:37;;;;;;;112.68;20.23;;;1.50;99.90;;;;;;5018172;28;20037;-57
2022/01/13 05:43:03;;;;;;;341.58;27.60;;;1.50;99.90;;;;;;5020937;28;20038;-58
2022/01/13 05:45:30;;;;;;;258.17;24.33;;;1.50;99.90;;;;;;5012595;28;20474;-58
2022/01/13 05:47:58;;;;;;;173.48;22.23;;;1.50;99.90;;;;;;5011183;28;20458;-57
2022/01/13 05:50:26;;;;;;;196.27;23.25;;;1.40;99.90;;;;;;5011872;28;20098;-57
2022/01/13 05:52:52;;;;;;;229.25;26.63;;;1.40;99.90;;;;;;5012141;28;20018;-57
2022/01/13 05:55:18;;;;;;;158.40;20.85;;;1.40;99.90;;;;;;5012509;28;20061;-57
2022/01/13 05:57:44;;;;;;;87.70;15.43;;;1.30;99.90;;;;;;5011951;28;20030;-57
2022/01/13 06:00:13;;;;;;;179.98;20.25;;;1.30;99.90;;;;;;5010562;28;20113;-57
2022/01/13 06:02:39;;;;;;;106.43;20.40;;;1.30;99.90;;;;;;5012907;28;20510;-57
2022/01/13 06:05:06;;;;;;;98.05;18.85;;;1.30;99.90;;;;;;5013102;28;20026;-57
2022/01/13 06:07:32;;;;;;;136.68;21.83;;;1.30;99.90;;;;;;5011935;28;20030;-57
2022/01/13 06:09:58;;;;;;;114.72;18.98;;;1.30;99.90;;;;;;5012143;28;20494;-57
2022/01/13 06:12:34;;;;;;;457.58;32.78;;;1.30;99.90;;;;;;5012293;28;20026;-58
2022/01/13 06:15:09;;;;;;;256.73;29.30;;;1.30;99.90;;;;;;5012292;28;20022;-57
2022/01/13 06:17:36;;;;;;;249.88;27.80;;;1.40;99.90;;;;;;5011947;28;20492;-58
2022/01/13 06:20:04;;;;;;;161.23;25.92;;;1.40;99.90;;;;;;5011313;28;20018;-58
2022/01/13 06:22:30;;;;;;;514.00;35.92;;;1.40;99.90;;;;;;5012736;28;20026;-58
2022/01/13 06:24:56;;;;;;;463.08;34.10;;;1.40;99.90;;;;;;5012550;28;20398;-58
2022/01/13 06:27:22;;;;;;;493.80;33.85;;;1.50;99.90;;;;;;5011680;28;20522;-58
2022/01/13 06:29:50;;;;;;;361.88;31.60;;;1.50;99.90;;;;;;5011880;28;20050;-58
2022/01/13 06:32:16;;;;;;;203.32;24.33;;;1.50;99.90;;;;;;5010996;28;20398;-58
2022/01/13 06:34:42;;;;;;;202.27;30.27;;;1.50;99.90;;;;;;5013065;28;20025;-58
2022/01/13 06:37:07;;;;;;;150.27;21.38;;;1.50;99.90;;;;;;5010285;28;20030;-58
2022/01/13 06:39:33;;;;;;;228.18;27.75;;;1.50;99.90;;;;;;5011454;28;20040;-58
2022/01/13 06:41:59;;;;;;;204.88;24.33;;;1.40;99.90;;;;;;5011636;28;20428;-58
2022/01/13 06:44:24;;;;;;;515.03;36.35;;;1.50;99.90;;;;;;5012821;28;20293;-58
2022/01/13 06:46:50;;;;;;;178.32;25.85;;;1.40;99.90;;;;;;5016400;28;20392;-58
2022/01/13 06:49:16;;;;;;;228.43;31.02;;;1.40;99.90;;;;;;5028073;28;20398;-58
2022/01/13 06:51:41;;;;;;;311.35;33.00;;;1.50;99.90;;;;;;5023388;28;20018;-58
2022/01/13 06:54:07;;;;;;;413.02;36.85;;;1.50;99.90;;;;;;5027253;28;20022;-57
2022/01/13 06:56:33;;;;;;;356.52;33.50;;;1.50;99.90;;;;;;5022481;28;20088;-57
2022/01/13 06:58:59;;;;;;;312.05;31.85;;;1.50;99.90;;;;;;5024354;28;20372;-57
2022/01/13 07:01:25;;;;;;;240.65;28.05;;;1.50;99.90;;;;;;5024923;28;20030;-57
2022/01/13 07:03:51;;;;;;;480.77;38.10;;;1.40;99.90;;;;;;5020609;28;20125;-57
2022/01/13 07:06:16;;;;;;;440.58;34.70;;;1.40;99.90;;;;;;5019070;28;20037;-57
2022/01/13 07:08:42;;;;;;;433.67;35.67;;;1.30;99.90;;;;;;5011029;28;20036;-57
2022/01/13 07:11:07;;;;;;;197.77;24.17;;;1.30;99.90;;;;;;5012514;28;20022;-56
2022/01/13 07:13:33;;;;;;;278.05;29.60;;;1.20;99.90;;;;;;5009242;28;20026;-58
2022/01/13 07:16:01;;;;;;;242.05;28.30;;;1.20;99.90;;;;;;5018917;28;20386;-58
2022/01/13 07:18:27;;;;;;;191.52;27.85;;;1.20;99.90;;;;;;5027661;28;20175;-58
2022/01/13 07:20:54;;;;;;;153.80;25.48;;;1.20;99.90;;;;;;5014438;28;20109;-57
2022/01/13 07:23:20;;;;;;;298.35;30.10;;;1.20;99.90;;;;;;5015916;28;20034;-57
2022/01/13 07:25:45;;;;;;;153.18;29.42;;;1.30;99.90;;;;;;5012377;28;20026;-56
2022/01/13 07:28:11;;;;;;;158.50;25.00;;;1.30;99.90;;;;;;5012846;28;20107;-56
2022/01/13 07:30:37;;;;;;;105.13;23.75;;;1.30;99.90;;;;;;5010672;28;20038;-56
2022/01/13 07:33:02;;;;;;;173.88;30.92;;;1.30;99.90;;;;;;5012201;28;20029;-56
2022/01/13 07:35:28;;;;;;;98.57;25.23;;;1.30;99.90;;;;;;5017793;28;20030;-56
2022/01/13 07:37:54;;;;;;;369.80;33.78;;;1.40;99.90;;;;;;5008167;28;20516;-56
2022/01/13 07:40:20;;;;;;;126.70;25.70;;;1.40;99.90;;;;;;5015522;28;20038;-56
2022/01/13 07:42:47;;;;;;;90.95;22.33;;;1.40;99.90;;;;;;5011517;28;20517;-56
2022/01/13 07:45:15;;;;;;;209.00;27.67;;;1.40;99.90;;;;;;5010917;28;20068;-57
2022/01/13 07:47:41;;;;;;;260.05;28.77;;;1.30;99.90;;;;;;5004717;28;20034;-57
2022/01/13 07:50:09;;;;;;;306.23;28.85;;;1.20;99.90;;;;;;5013263;28;20032;-57
2022/01/13 07:52:34;;;;;;;292.98;29.40;;;1.20;99.90;;;;;;5010135;28;20022;-57
2022/01/13 07:55:00;;;;;;;140.23;26.73;;;1.10;99.90;;;;;;5007312;28;20026;-57
2022/01/13 07:57:26;;;;;;;118.63;22.13;;;1.10;99.90;;;;;;5023121;28;20166;-57
2022/01/13 07:59:52;;;;;;;87.55;20.65;;;1.20;99.90;;;;;;5018191;28;20044;-57
2022/01/13 08:02:19;;;;;;;75.57;20.95;;;1.10;99.90;;;;;;5016622;28;20014;-57
2022/01/13 08:04:45;;;;;;;157.55;27.50;;;1.20;99.90;;;;;;5015202;28;20410;-57
2022/01/13 08:07:10;;;;;;;170.65;22.95;;;1.20;99.90;;;;;;5015957;28;20018;-58
2022/01/13 08:09:36;;;;;;;307.88;28.67;;;1.20;99.90;;;;;;5026692;28;20024;-58
2022/01/13 08:12:02;;;;;;;110.70;21.17;;;1.20;99.90;;;;;;5020727;28;20030;-58
2022/01/13 08:14:28;;;;;;;262.15;26.50;;;1.20;99.90;;;;;;5016936;28;20513;-57
2022/01/13 08:16:58;;;;;;;182.38;25.63;;;1.10;99.90;;;;;;5015932;28;20033;-57
2022/01/13 08:22:09;;;;;;;273.13;27.98;;;1.20;99.90;;;;;;5018556;28;20083;-58
2022/01/13 08:24:35;;;;;;;62.80;18.55;;;1.20;99.90;;;;;;5012446;28;20040;-59
2022/01/13 08:27:01;;;;;;;49.95;20.30;;;1.20;99.90;;;;;;5018631;28;20030;-58
2022/01/13 08:29:26;;;;;;;80.30;19.85;;;1.30;99.90;;;;;;5022865;28;20500;-58
2022/01/13 08:31:52;;;;;;;158.73;27.52;;;1.30;99.90;;;;;;5019135;28;20032;-56
2022/01/13 08:34:18;;;;;;;213.38;26.73;;;1.70;99.90;;;;;;5019876;28;20025;-55
2022/01/13 08:36:44;;;;;;;153.57;25.50;;;2.10;99.90;;;;;;5021741;28;20029;-54
2022/01/13 08:39:10;;;;;;;185.73;25.92;;;2.00;99.90;;;;;;5024517;28;20026;-54
2022/01/13 08:41:36;;;;;;;117.65;21.13;;;1.90;99.90;;;;;;5022720;28;20521;-54
2022/01/13 08:44:02;;;;;;;355.52;27.40;;;2.10;99.90;;;;;;5015710;28;20038;-55
2022/01/13 08:46:28;;;;;;;183.07;24.52;;;2.50;99.90;;;;;;5023288;28;20030;-54
2022/01/13 08:48:54;;;;;;;221.57;26.25;;;2.30;99.90;;;;;;5032424;28;20040;-54
2022/01/13 08:51:20;;;;;;;97.53;21.92;;;2.70;99.90;;;;;;5018987;28;20037;-54
2022/01/13 08:53:46;;;;;;;163.05;26.13;;;2.50;99.90;;;;;;5013596;28;20037;-55
2022/01/13 08:56:13;;;;;;;62.35;18.20;;;2.50;99.90;;;;;;5016830;28;20021;-54
2022/01/13 08:58:39;;;;;;;88.50;20.80;;;2.50;99.90;;;;;;5021535;28;20030;-55
2022/01/13 09:01:07;;;;;;;160.73;25.35;;;2.20;99.90;;;;;;5017949;28;20054;-54
2022/01/13 09:03:33;;;;;;;60.55;21.10;;;2.10;99.90;;;;;;5014156;28;20029;-54
2022/01/13 09:05:58;;;;;;;131.40;24.23;;;2.30;99.90;;;;;;5018721;28;20026;-54
2022/01/13 09:08:24;;;;;;;119.38;22.73;;;2.20;99.90;;;;;;5019283;28;20017;-54
2022/01/13 09:10:49;;;;;;;42.00;20.25;;;2.20;99.90;;;;;;5016208;28;20021;-54
2022/01/13 09:13:16;;;;;;;151.13;25.15;;;3.10;99.90;;;;;;5012543;28;20100;-54
2022/01/13 09:15:50;;;;;;;44.10;19.63;;;3.40;99.90;;;;;;5014474;28;20021;-54
2022/01/13 09:18:19;;;;;;;115.00;21.60;;;2.90;99.90;;;;;;5013597;28;20036;-54
2022/01/13 09:20:46;;;;;;;89.35;22.20;;;2.70;99.90;;;;;;5019481;28;21595;-55
2022/01/13 09:23:13;;;;;;;211.68;25.73;;;2.60;99.90;;;;;;5013921;28;20576;-55
2022/01/13 09:25:39;;;;;;;51.42;20.92;;;2.40;99.90;;;;;;5020300;28;20446;-56
2022/01/13 09:28:07;;;;;;;50.90;20.95;;;2.50;99.90;;;;;;5015934;28;20061;-57
2022/01/13 09:30:33;;;;;;;149.68;24.13;;;2.40;99.90;;;;;;5017821;28;20038;-57
2022/01/13 09:32:59;;;;;;;254.82;23.88;;;2.40;99.90;;;;;;5027195;28;20010;-57
2022/01/13 09:35:24;;;;;;;88.18;21.27;;;2.20;99.90;;;;;;5032516;28;20033;-57
2022/01/13 09:37:51;;;;;;;313.35;28.30;;;2.00;99.90;;;;;;5017374;28;20565;-58
2022/01/13 09:40:16;;;;;;;279.00;28.23;;;1.90;99.90;;;;;;5021641;28;20533;-57
2022/01/13 09:42:44;;;;;;;108.65;21.50;;;1.80;99.90;;;;;;5016982;28;20046;-57
2022/01/13 09:45:12;;;;;;;343.85;31.38;;;1.80;99.90;;;;;;5017758;28;20106;-57
2022/01/13 09:47:39;;;;;;;71.18;21.15;;;1.80;99.90;;;;;;5021600;28;20410;-57
2022/01/13 09:50:10;;;;;;;160.85;26.08;;;2.00;99.90;;;;;;5034220;28;20037;-58
2022/01/13 09:52:37;;;;;;;139.07;26.25;;;2.00;99.90;;;;;;5024961;28;20073;-57
2022/01/13 09:55:07;;;;;;;71.25;24.13;;;2.00;99.90;;;;;;5016171;28;20168;-57
2022/01/13 09:57:33;;;;;;;122.38;24.80;;;2.10;99.90;;;;;;5016779;28;20022;-57
2022/01/13 10:00:00;;;;;;;217.27;30.65;;;2.20;99.90;;;;;;5015830;28;20040;-57
2022/01/13 10:02:26;;;;;;;224.77;28.75;;;2.10;99.90;;;;;;5017634;28;20565;-58
2022/01/13 10:04:54;;;;;;;235.20;28.42;;;2.10;99.90;;;;;;5020265;28;20026;-58
2022/01/13 10:07:34;;;;;;;73.28;20.00;;;2.30;99.90;;;;;;5017714;28;20038;-58
2022/01/13 10:10:04;;;;;;;169.23;24.52;;;2.30;99.90;;;;;;5015789;28;20557;-57
2022/01/13 10:12:36;;;;;;;225.23;28.00;;;2.40;99.90;;;;;;5017856;28;20100;-57
2022/01/13 10:17:45;;;;;;;108.95;20.55;;;2.40;99.90;;;;;;5021106;28;20060;-57
2022/01/13 10:20:13;;;;;;;274.40;26.98;;;2.40;99.90;;;;;;5023910;28;20026;-57
2022/01/13 10:22:38;;;;;;;293.70;29.27;;;2.30;99.90;;;;;;5021508;28;20762;-56
2022/01/13 10:25:04;;;;;;;141.25;25.35;;;2.30;99.90;;;;;;5010691;28;20138;-56
2022/01/13 10:27:32;;;;;;;136.27;24.70;;;2.40;99.90;;;;;;5016043;28;20495;-56
2022/01/13 10:30:13;;;;;;;155.40;27.80;;;2.40;99.90;;;;;;5014414;28;20033;-56
2022/01/13 10:32:40;;;;;;;107.95;21.10;;;2.40;99.90;;;;;;5021981;28;20041;-56
2022/01/13 10:35:10;;;;;;;184.40;24.70;;;2.50;99.90;;;;;;5017911;28;20209;-56
2022/01/13 10:37:41;;;;;;;79.75;24.17;;;2.50;99.90;;;;;;5017555;28;20013;-56
2022/01/13 10:40:11;;;;;;;120.80;26.42;;;2.50;99.90;;;;;;5020521;28;20021;-56
2022/01/13 10:45:21;;;;;;;93.72;26.65;;;2.70;99.90;;;;;;5016475;28;20029;-56
2022/01/13 10:48:14;;;;;;;68.68;23.42;;;2.80;99.90;;;;;;5019600;28;20014;-56
2022/01/13 10:50:41;;;;;;;;;;;2.80;99.90;;;;;;5014672;28;20802;-56
2022/01/13 10:53:12;;;;;;;164.85;26.30;;;2.90;99.90;;;;;;5010734;28;19939;-57
2022/01/13 10:55:43;;;;;;;83.32;21.38;;;3.00;99.90;;;;;;5014055;28;20112;-56
2022/01/13 10:58:14;;;;;;;113.85;23.45;;;3.00;99.90;;;;;;5015767;28;20044;-56
2022/01/13 11:00:40;;;;;;;100.65;22.90;;;2.90;99.90;;;;;;5018187;28;20079;-56
2022/01/13 11:03:11;;;;;;;85.05;23.95;;;2.90;99.90;;;;;;5014314;28;20104;-56
2022/01/13 11:05:46;;;;;;;168.95;26.25;;;2.90;99.90;;;;;;5026798;28;20044;-56
2022/01/13 11:08:27;;;;;;;155.50;27.33;;;3.10;99.90;;;;;;5015396;28;20025;-56
2022/01/13 11:10:56;;;;;;;97.13;23.40;;;3.30;99.90;;;;;;5014491;28;20037;-57
2022/01/13 11:13:23;;;;;;;71.95;23.27;;;3.50;99.90;;;;;;5019194;28;20037;-57
2022/01/13 11:15:53;;;;;;;76.65;22.92;;;3.50;99.90;;;;;;5021125;28;20013;-58
2022/01/13 11:18:20;;;;;;;69.47;27.50;;;3.50;99.90;;;;;;5024991;28;20021;-57
2022/01/13 11:20:47;;;;;;;85.78;32.97;;;3.40;99.90;;;;;;5026048;28;20029;-57
2022/01/13 11:23:16;;;;;;;76.60;27.70;;;3.40;99.90;;;;;;5021212;28;20026;-57
2022/01/13 11:25:45;;;;;;;80.72;27.35;;;3.40;99.90;;;;;;5011668;28;20030;-58
2022/01/13 11:28:12;;;;;;;200.75;27.98;;;3.40;99.90;;;;;;5017977;28;20045;-58
2022/01/13 11:30:39;;;;;;;77.40;25.52;;;3.30;99.90;;;;;;5024510;28;20060;-57
2022/01/13 11:33:04;;;;;;;77.55;26.08;;;3.30;99.90;;;;;;5012461;28;20043;-57
2022/01/13 11:35:35;;;;;;;72.88;26.40;;;3.30;99.90;;;;;;5014407;28;21134;-57
2022/01/13 11:38:03;;;;;;;70.85;24.83;;;3.30;99.90;;;;;;5023054;28;20032;-57
2022/01/13 11:40:28;;;;;;;94.68;24.85;;;3.30;99.90;;;;;;5016555;28;20360;-57
2022/01/13 11:42:55;;;;;;;206.77;29.20;;;3.20;99.90;;;;;;5020570;28;20033;-57
2022/01/13 11:45:22;;;;;;;97.93;26.67;;;3.20;99.90;;;;;;5020744;28;20627;-57
2022/01/13 11:47:51;;;;;;;153.43;30.30;;;3.30;99.90;;;;;;5029610;28;20033;-57
2022/01/13 11:50:22;;;;;;;108.20;27.58;;;3.30;99.90;;;;;;5009603;28;20050;-57
2022/01/13 11:52:53;;;;;;;107.20;25.17;;;3.50;99.90;;;;;;5025784;28;20025;-57
2022/01/13 11:55:34;;;;;;;77.53;23.02;;;3.80;99.90;;;;;;5017306;28;20022;-57
2022/01/13 11:58:14;;;;;;;130.98;27.38;;;3.80;99.90;;;;;;5026818;28;20085;-56
2022/01/13 12:00:42;;;;;;;65.72;21.70;;;4.00;99.90;;;;;;5018090;28;20650;-57
2022/01/13 12:03:31;;;;;;;155.52;23.60;;;4.00;99.90;;;;;;5024449;28;20029;-57
2022/01/13 12:05:58;;;;;;;90.47;24.40;;;3.70;99.90;;;;;;5024376;28;20030;-57
2022/01/13 12:08:45;;;;;;;98.30;25.02;;;3.60;99.90;;;;;;5023767;28;20033;-56
2022/01/13 12:11:37;;;;;;;187.98;27.73;;;3.60;99.90;;;;;;5024274;28;20400;-56
2022/01/13 12:14:22;;;;;;;193.18;26.83;;;3.90;99.90;;;;;;5020571;28;20026;-58
2022/01/13 12:16:57;;;;;;;192.70;23.55;;;4.20;99.90;;;;;;5022016;28;20040;-57
2022/01/13 12:19:34;;;;;;;132.98;20.92;;;4.40;99.90;;;;;;5019684;28;20060;-57
2022/01/13 12:22:06;;;;;;;111.72;22.60;;;4.30;99.90;;;;;;5023946;28;20474;-58
2022/01/13 12:24:50;;;;;;;136.73;25.10;;;4.10;99.90;;;;;;5017179;28;20034;-57
2022/01/13 12:27:19;;;;;;;44.83;18.15;;;4.00;99.90;;;;;;5018220;28;20041;-57
2022/01/13 12:30:07;;;;;;;73.50;23.33;;;3.90;99.90;;;;;;5025137;28;20069;-57
2022/01/13 12:32:44;;;;;;;145.20;25.60;;;3.90;99.90;;;;;;5026296;28;20029;-57
2022/01/13 12:35:29;;;;;;;121.40;25.10;;;3.80;99.90;;;;;;5019082;28;20032;-57
2022/01/13 12:38:07;;;;;;;98.88;23.60;;;3.90;99.90;;;;;;5027146;28;20022;-57
2022/01/13 12:40:41;;;;;;;74.20;21.42;;;3.90;99.90;;;;;;5022711;28;20498;-57
2022/01/13 12:46:22;;;;;;;116.57;22.05;;;3.80;99.90;;;;;;5023821;28;20487;-57
2022/01/13 12:48:50;;;;;;;52.65;21.88;;;3.80;99.90;;;;;;5021419;28;20030;-57
2022/01/13 12:51:19;;;;;;;89.00;21.83;;;3.90;99.90;;;;;;5038359;28;20409;-57
2022/01/13 12:53:45;;;;;;;148.68;24.20;;;3.90;99.90;;;;;;5019498;28;20375;-57
2022/01/13 12:56:22;;;;;;;66.90;22.83;;;3.80;99.90;;;;;;5026069;28;20064;-57
2022/01/13 12:58:54;;;;;;;79.53;24.02;;;3.80;99.90;;;;;;5023997;28;20036;-57
2022/01/13 13:01:25;;;;;;;126.03;23.77;;;3.80;99.90;;;;;;5020503;28;20033;-57